Rosewood, California
Current Conditions -  °F | °C
As of 1:08 AM on Saturday 25 Oct 2014 (Local Time) from KHHR Reporting Station
Overcast Overcast  
Wind Chill: 67°   Ceiling: 500
Heat Index: 67°   Visibility: 10mi
Dew Point: 65°   Wind: 6mph
Humidity: 93%   Direction: 240°WSW
Pressure: 30.03"   Gusts: NA
Location:  33.9125°N, 118.235°W
Report Text: KHHR 250808Z AUTO 24005KT 10SM OVC005 19/18 A3003 RMK AO2 CIG 004V008 T01940183
Loading
Personal Weather Stations






























Interactive Weather Map
Tropical Storm Tracking
New forecast layout! Learn more

10-Day Weather Forecast

Advertisements
Track Severe Weather on mobile